ADDS TAF Data INFO
IDs: Format: Raw Decoded Include METARs

Data at: 1806 UTC 12 Dec 2017

TAF for:KSJC (San Jose Intl Arpt, CA, US) issued at 1720 UTC 12 Dec 2017
Text:KSJC 121720Z 1218/1318 VRB02KT P6SM FEW100
Forecast period:1800 to 2000 UTC 12 December 2017
Forecast type:FROM: standard forecast or significant change
Winds:variable direction winds at 2 MPH (2 knots; 1.0 m/s)
Visibility:6 or more sm (10+ km)
Ceiling:at least 12,000 feet AGL
Clouds: few clouds at 10000 feet AGL
Text:FM122000 31004KT P6SM SKC
Forecast period:2000 UTC 12 December 2017 to 0300 UTC 13 December 2017
Forecast type:FROM: standard forecast or significant change
Winds:from the NW (310 degrees) at 5 MPH (4 knots; 2.1 m/s)
Visibility:6 or more sm (10+ km)
Ceiling:at least 12,000 feet AGL
Clouds:clear skies
Text:FM130300 21002KT P6SM SKC
Forecast period:0300 to 1800 UTC 13 December 2017
Forecast type:FROM: standard forecast or significant change
Winds:from the SSW (210 degrees) at 2 MPH (2 knots; 1.0 m/s)
Visibility:6 or more sm (10+ km)
Ceiling:at least 12,000 feet AGL
Clouds:clear skies